sensor_id;sensor_type;location;lat;lon;timestamp;P1;durP1;ratioP1;P2;durP2;ratioP2
38717;SDS011;24468;52.128;9.278;2023-08-08T00:02:15;5.15;;;2.47;;
38717;SDS011;24468;52.128;9.278;2023-08-08T00:04:41;3.13;;;2.22;;
38717;SDS011;24468;52.128;9.278;2023-08-08T00:07:06;5.22;;;2.00;;
38717;SDS011;24468;52.128;9.278;2023-08-08T00:09:32;4.43;;;2.25;;
38717;SDS011;24468;52.128;9.278;2023-08-08T00:11:58;2.85;;;2.05;;
38717;SDS011;24468;52.128;9.278;2023-08-08T00:14:24;2.75;;;2.08;;
38717;SDS011;24468;52.128;9.278;2023-08-08T00:16:50;7.38;;;2.10;;
38717;SDS011;24468;52.128;9.278;2023-08-08T00:19:15;3.40;;;2.22;;
38717;SDS011;24468;52.128;9.278;2023-08-08T00:21:41;4.07;;;2.20;;
38717;SDS011;24468;52.128;9.278;2023-08-08T00:24:07;3.95;;;2.00;;
38717;SDS011;24468;52.128;9.278;2023-08-08T00:26:32;3.53;;;2.33;;
38717;SDS011;24468;52.128;9.278;2023-08-08T00:28:58;8.27;;;2.33;;
38717;SDS011;24468;52.128;9.278;2023-08-08T00:31:23;4.38;;;2.53;;
38717;SDS011;24468;52.128;9.278;2023-08-08T00:33:49;5.53;;;2.33;;
38717;SDS011;24468;52.128;9.278;2023-08-08T00:36:14;5.05;;;2.35;;
38717;SDS011;24468;52.128;9.278;2023-08-08T00:38:40;3.88;;;2.45;;
38717;SDS011;24468;52.128;9.278;2023-08-08T00:41:05;4.22;;;2.25;;
38717;SDS011;24468;52.128;9.278;2023-08-08T00:43:31;3.53;;;2.50;;
38717;SDS011;24468;52.128;9.278;2023-08-08T00:45:56;4.57;;;2.42;;
38717;SDS011;24468;52.128;9.278;2023-08-08T00:48:22;5.05;;;2.60;;
38717;SDS011;24468;52.128;9.278;2023-08-08T00:50:48;4.97;;;2.55;;
38717;SDS011;24468;52.128;9.278;2023-08-08T00:53:16;5.00;;;2.85;;
38717;SDS011;24468;52.128;9.278;2023-08-08T00:55:44;5.00;;;2.75;;
38717;SDS011;24468;52.128;9.278;2023-08-08T00:58:11;4.60;;;2.55;;
38717;SDS011;24468;52.128;9.278;2023-08-08T01:00:37;5.97;;;2.88;;
38717;SDS011;24468;52.128;9.278;2023-08-08T01:03:03;3.13;;;2.75;;
38717;SDS011;24468;52.128;9.278;2023-08-08T01:05:31;6.80;;;3.28;;
38717;SDS011;24468;52.128;9.278;2023-08-08T01:08:06;3.60;;;2.60;;
38717;SDS011;24468;52.128;9.278;2023-08-08T01:10:39;7.65;;;2.70;;
38717;SDS011;24468;52.128;9.278;2023-08-08T01:13:15;5.63;;;2.88;;
38717;SDS011;24468;52.128;9.278;2023-08-08T01:15:46;3.60;;;2.72;;
38717;SDS011;24468;52.128;9.278;2023-08-08T01:18:13;8.13;;;2.63;;
38717;SDS011;24468;52.128;9.278;2023-08-08T01:20:40;4.70;;;2.95;;
38717;SDS011;24468;52.128;9.278;2023-08-08T01:23:12;4.32;;;3.20;;
38717;SDS011;24468;52.128;9.278;2023-08-08T01:25:49;6.40;;;2.50;;
38717;SDS011;24468;52.128;9.278;2023-08-08T01:28:15;5.82;;;2.92;;
38717;SDS011;24468;52.128;9.278;2023-08-08T01:30:46;6.07;;;2.35;;
38717;SDS011;24468;52.128;9.278;2023-08-08T01:33:11;6.57;;;2.28;;
38717;SDS011;24468;52.128;9.278;2023-08-08T01:35:37;5.63;;;3.08;;
38717;SDS011;24468;52.128;9.278;2023-08-08T01:38:12;7.05;;;3.05;;
38717;SDS011;24468;52.128;9.278;2023-08-08T01:40:40;7.70;;;3.42;;
38717;SDS011;24468;52.128;9.278;2023-08-08T01:43:09;3.88;;;2.50;;
38717;SDS011;24468;52.128;9.278;2023-08-08T01:45:35;7.10;;;3.30;;
38717;SDS011;24468;52.128;9.278;2023-08-08T01:48:08;4.18;;;2.22;;
38717;SDS011;24468;52.128;9.278;2023-08-08T01:50:36;4.35;;;3.15;;
38717;SDS011;24468;52.128;9.278;2023-08-08T01:53:02;5.85;;;3.60;;
38717;SDS011;24468;52.128;9.278;2023-08-08T01:55:29;6.90;;;3.13;;
38717;SDS011;24468;52.128;9.278;2023-08-08T01:57:55;4.03;;;3.13;;
38717;SDS011;24468;52.128;9.278;2023-08-08T02:00:21;4.43;;;3.00;;
38717;SDS011;24468;52.128;9.278;2023-08-08T02:02:47;3.00;;;2.65;;
38717;SDS011;24468;52.128;9.278;2023-08-08T02:05:12;4.57;;;3.15;;
38717;SDS011;24468;52.128;9.278;2023-08-08T02:07:38;4.40;;;2.92;;
38717;SDS011;24468;52.128;9.278;2023-08-08T02:10:04;4.25;;;3.13;;
38717;SDS011;24468;52.128;9.278;2023-08-08T02:12:29;5.03;;;3.15;;
38717;SDS011;24468;52.128;9.278;2023-08-08T02:14:56;4.47;;;3.05;;
38717;SDS011;24468;52.128;9.278;2023-08-08T02:17:22;6.18;;;3.60;;
38717;SDS011;24468;52.128;9.278;2023-08-08T02:19:48;5.38;;;2.95;;
38717;SDS011;24468;52.128;9.278;2023-08-08T02:22:13;6.10;;;3.60;;
38717;SDS011;24468;52.128;9.278;2023-08-08T02:24:39;4.38;;;2.90;;
38717;SDS011;24468;52.128;9.278;2023-08-08T02:27:04;6.05;;;3.22;;
38717;SDS011;24468;52.128;9.278;2023-08-08T02:29:30;7.00;;;3.78;;
38717;SDS011;24468;52.128;9.278;2023-08-08T02:31:55;8.43;;;4.22;;
38717;SDS011;24468;52.128;9.278;2023-08-08T02:34:21;5.95;;;3.97;;
38717;SDS011;24468;52.128;9.278;2023-08-08T02:36:47;6.80;;;3.50;;
38717;SDS011;24468;52.128;9.278;2023-08-08T02:39:13;5.03;;;3.78;;
38717;SDS011;24468;52.128;9.278;2023-08-08T02:41:38;5.35;;;3.85;;
38717;SDS011;24468;52.128;9.278;2023-08-08T02:44:04;5.68;;;4.38;;
38717;SDS011;24468;52.128;9.278;2023-08-08T02:46:29;6.65;;;3.88;;
38717;SDS011;24468;52.128;9.278;2023-08-08T02:48:55;6.55;;;3.95;;
38717;SDS011;24468;52.128;9.278;2023-08-08T02:51:21;6.90;;;4.03;;
38717;SDS011;24468;52.128;9.278;2023-08-08T02:53:46;4.57;;;3.70;;
38717;SDS011;24468;52.128;9.278;2023-08-08T02:56:12;4.35;;;3.60;;
38717;SDS011;24468;52.128;9.278;2023-08-08T02:58:37;4.47;;;3.50;;
38717;SDS011;24468;52.128;9.278;2023-08-08T03:01:03;5.20;;;3.72;;
38717;SDS011;24468;52.128;9.278;2023-08-08T03:03:28;6.00;;;3.47;;
38717;SDS011;24468;52.128;9.278;2023-08-08T03:05:54;5.22;;;3.35;;
38717;SDS011;24468;52.128;9.278;2023-08-08T03:08:19;5.10;;;3.67;;
38717;SDS011;24468;52.128;9.278;2023-08-08T03:10:45;8.38;;;3.65;;
38717;SDS011;24468;52.128;9.278;2023-08-08T03:13:10;3.95;;;2.55;;
38717;SDS011;24468;52.128;9.278;2023-08-08T03:15:36;8.02;;;3.13;;
38717;SDS011;24468;52.128;9.278;2023-08-08T03:18:02;6.50;;;3.85;;
38717;SDS011;24468;52.128;9.278;2023-08-08T03:20:28;6.05;;;3.47;;
38717;SDS011;24468;52.128;9.278;2023-08-08T03:22:54;5.60;;;3.25;;
38717;SDS011;24468;52.128;9.278;2023-08-08T03:25:19;5.50;;;3.22;;
38717;SDS011;24468;52.128;9.278;2023-08-08T03:27:45;6.45;;;3.67;;
38717;SDS011;24468;52.128;9.278;2023-08-08T03:30:10;4.75;;;2.67;;
38717;SDS011;24468;52.128;9.278;2023-08-08T03:32:37;4.03;;;3.03;;
38717;SDS011;24468;52.128;9.278;2023-08-08T03:35:02;6.85;;;2.90;;
38717;SDS011;24468;52.128;9.278;2023-08-08T03:37:29;4.10;;;3.00;;
38717;SDS011;24468;52.128;9.278;2023-08-08T03:39:55;4.22;;;2.17;;
38717;SDS011;24468;52.128;9.278;2023-08-08T03:42:20;4.30;;;2.50;;
38717;SDS011;24468;52.128;9.278;2023-08-08T03:44:46;4.85;;;2.80;;
38717;SDS011;24468;52.128;9.278;2023-08-08T03:47:11;3.35;;;2.70;;
38717;SDS011;24468;52.128;9.278;2023-08-08T03:49:37;4.05;;;2.13;;
38717;SDS011;24468;52.128;9.278;2023-08-08T03:52:02;3.70;;;2.15;;
38717;SDS011;24468;52.128;9.278;2023-08-08T03:54:28;2.85;;;2.17;;
38717;SDS011;24468;52.128;9.278;2023-08-08T03:56:54;3.70;;;2.42;;
38717;SDS011;24468;52.128;9.278;2023-08-08T03:59:19;4.68;;;1.90;;
38717;SDS011;24468;52.128;9.278;2023-08-08T04:01:45;3.40;;;2.10;;
38717;SDS011;24468;52.128;9.278;2023-08-08T04:04:10;3.63;;;2.10;;
38717;SDS011;24468;52.128;9.278;2023-08-08T04:06:36;4.35;;;2.33;;
38717;SDS011;24468;52.128;9.278;2023-08-08T04:09:01;2.28;;;1.80;;
38717;SDS011;24468;52.128;9.278;2023-08-08T04:11:27;4.35;;;2.00;;
38717;SDS011;24468;52.128;9.278;2023-08-08T04:13:52;5.85;;;2.20;;
38717;SDS011;24468;52.128;9.278;2023-08-08T04:16:18;4.88;;;2.70;;
38717;SDS011;24468;52.128;9.278;2023-08-08T04:18:43;2.28;;;2.03;;
38717;SDS011;24468;52.128;9.278;2023-08-08T04:21:09;4.82;;;2.92;;
38717;SDS011;24468;52.128;9.278;2023-08-08T04:23:34;3.10;;;2.80;;
38717;SDS011;24468;52.128;9.278;2023-08-08T04:26:00;7.05;;;3.30;;
38717;SDS011;24468;52.128;9.278;2023-08-08T04:28:26;5.93;;;3.20;;
38717;SDS011;24468;52.128;9.278;2023-08-08T04:30:51;4.80;;;3.55;;
38717;SDS011;24468;52.128;9.278;2023-08-08T04:33:17;4.88;;;3.05;;
38717;SDS011;24468;52.128;9.278;2023-08-08T04:35:42;5.70;;;3.58;;
38717;SDS011;24468;52.128;9.278;2023-08-08T04:38:08;5.15;;;3.70;;
38717;SDS011;24468;52.128;9.278;2023-08-08T04:40:33;4.85;;;4.05;;
38717;SDS011;24468;52.128;9.278;2023-08-08T04:43:00;7.10;;;4.25;;
38717;SDS011;24468;52.128;9.278;2023-08-08T04:45:26;6.43;;;3.90;;
38717;SDS011;24468;52.128;9.278;2023-08-08T04:47:52;9.90;;;4.13;;
38717;SDS011;24468;52.128;9.278;2023-08-08T04:50:18;5.75;;;4.25;;
38717;SDS011;24468;52.128;9.278;2023-08-08T04:52:43;5.80;;;4.38;;
38717;SDS011;24468;52.128;9.278;2023-08-08T04:55:09;7.07;;;4.28;;
38717;SDS011;24468;52.128;9.278;2023-08-08T04:57:34;8.27;;;4.30;;
38717;SDS011;24468;52.128;9.278;2023-08-08T05:00:00;7.30;;;4.28;;
38717;SDS011;24468;52.128;9.278;2023-08-08T05:02:30;6.50;;;4.20;;
38717;SDS011;24468;52.128;9.278;2023-08-08T05:04:55;7.53;;;4.68;;
38717;SDS011;24468;52.128;9.278;2023-08-08T05:07:21;5.28;;;4.75;;
38717;SDS011;24468;52.128;9.278;2023-08-08T05:09:46;7.05;;;4.43;;
38717;SDS011;24468;52.128;9.278;2023-08-08T05:12:12;4.95;;;3.97;;
38717;SDS011;24468;52.128;9.278;2023-08-08T05:14:37;4.93;;;3.58;;
38717;SDS011;24468;52.128;9.278;2023-08-08T05:17:03;6.32;;;4.00;;
38717;SDS011;24468;52.128;9.278;2023-08-08T05:19:29;5.68;;;3.90;;
38717;SDS011;24468;52.128;9.278;2023-08-08T05:21:54;4.63;;;3.97;;
38717;SDS011;24468;52.128;9.278;2023-08-08T05:24:20;6.82;;;3.58;;
38717;SDS011;24468;52.128;9.278;2023-08-08T05:26:45;8.98;;;4.07;;
38717;SDS011;24468;52.128;9.278;2023-08-08T05:29:11;5.22;;;4.43;;
38717;SDS011;24468;52.128;9.278;2023-08-08T05:31:36;14.27;;;5.47;;
38717;SDS011;24468;52.128;9.278;2023-08-08T05:34:02;9.65;;;5.13;;
38717;SDS011;24468;52.128;9.278;2023-08-08T05:36:27;6.35;;;5.53;;
38717;SDS011;24468;52.128;9.278;2023-08-08T05:38:53;5.75;;;5.15;;
38717;SDS011;24468;52.128;9.278;2023-08-08T05:41:18;13.48;;;6.32;;
38717;SDS011;24468;52.128;9.278;2023-08-08T05:43:44;5.50;;;4.97;;
38717;SDS011;24468;52.128;9.278;2023-08-08T05:46:09;9.23;;;7.07;;
38717;SDS011;24468;52.128;9.278;2023-08-08T05:48:35;7.70;;;6.28;;
38717;SDS011;24468;52.128;9.278;2023-08-08T05:51:00;9.30;;;6.70;;
38717;SDS011;24468;52.128;9.278;2023-08-08T05:53:29;11.73;;;7.32;;
38717;SDS011;24468;52.128;9.278;2023-08-08T05:55:56;12.85;;;7.35;;
38717;SDS011;24468;52.128;9.278;2023-08-08T05:58:22;12.27;;;6.03;;
38717;SDS011;24468;52.128;9.278;2023-08-08T06:00:47;9.40;;;6.20;;
38717;SDS011;24468;52.128;9.278;2023-08-08T06:03:13;11.38;;;6.85;;
38717;SDS011;24468;52.128;9.278;2023-08-08T06:05:38;9.48;;;6.28;;
38717;SDS011;24468;52.128;9.278;2023-08-08T06:08:04;7.30;;;6.43;;
38717;SDS011;24468;52.128;9.278;2023-08-08T06:10:32;11.10;;;7.45;;
38717;SDS011;24468;52.128;9.278;2023-08-08T06:12:59;9.82;;;8.02;;
38717;SDS011;24468;52.128;9.278;2023-08-08T06:15:25;8.85;;;6.63;;
38717;SDS011;24468;52.128;9.278;2023-08-08T06:17:50;7.75;;;6.95;;
38717;SDS011;24468;52.128;9.278;2023-08-08T06:20:16;9.07;;;6.65;;
38717;SDS011;24468;52.128;9.278;2023-08-08T06:22:42;11.57;;;9.05;;
38717;SDS011;24468;52.128;9.278;2023-08-08T06:25:07;8.73;;;7.18;;
38717;SDS011;24468;52.128;9.278;2023-08-08T06:27:33;10.48;;;7.85;;
38717;SDS011;24468;52.128;9.278;2023-08-08T06:29:58;8.10;;;6.95;;
38717;SDS011;24468;52.128;9.278;2023-08-08T06:32:24;10.73;;;8.60;;
38717;SDS011;24468;52.128;9.278;2023-08-08T06:34:49;10.90;;;7.13;;
38717;SDS011;24468;52.128;9.278;2023-08-08T06:37:15;8.23;;;7.53;;
38717;SDS011;24468;52.128;9.278;2023-08-08T06:39:40;9.27;;;7.18;;
38717;SDS011;24468;52.128;9.278;2023-08-08T06:42:06;9.23;;;7.55;;
38717;SDS011;24468;52.128;9.278;2023-08-08T06:44:33;7.40;;;6.38;;
38717;SDS011;24468;52.128;9.278;2023-08-08T06:47:05;10.02;;;6.82;;
38717;SDS011;24468;52.128;9.278;2023-08-08T06:49:31;11.73;;;6.80;;
38717;SDS011;24468;52.128;9.278;2023-08-08T06:51:56;8.27;;;7.45;;
38717;SDS011;24468;52.128;9.278;2023-08-08T06:54:22;6.80;;;6.03;;
38717;SDS011;24468;52.128;9.278;2023-08-08T06:56:47;8.27;;;6.50;;
38717;SDS011;24468;52.128;9.278;2023-08-08T06:59:13;8.25;;;6.53;;
38717;SDS011;24468;52.128;9.278;2023-08-08T07:01:38;14.10;;;7.05;;
38717;SDS011;24468;52.128;9.278;2023-08-08T07:04:04;10.23;;;6.15;;
38717;SDS011;24468;52.128;9.278;2023-08-08T07:06:29;7.53;;;5.57;;
38717;SDS011;24468;52.128;9.278;2023-08-08T07:08:55;6.82;;;5.25;;
38717;SDS011;24468;52.128;9.278;2023-08-08T07:11:20;8.23;;;6.38;;
38717;SDS011;24468;52.128;9.278;2023-08-08T07:13:47;9.32;;;6.35;;
38717;SDS011;24468;52.128;9.278;2023-08-08T07:16:12;7.22;;;5.18;;
38717;SDS011;24468;52.128;9.278;2023-08-08T07:18:38;8.98;;;5.82;;
38717;SDS011;24468;52.128;9.278;2023-08-08T07:21:03;7.00;;;4.47;;
38717;SDS011;24468;52.128;9.278;2023-08-08T07:23:29;8.95;;;5.15;;
38717;SDS011;24468;52.128;9.278;2023-08-08T07:25:54;10.23;;;4.65;;
38717;SDS011;24468;52.128;9.278;2023-08-08T07:28:20;6.32;;;4.20;;
38717;SDS011;24468;52.128;9.278;2023-08-08T07:30:46;6.85;;;3.80;;
38717;SDS011;24468;52.128;9.278;2023-08-08T07:33:11;8.77;;;3.35;;
38717;SDS011;24468;52.128;9.278;2023-08-08T07:35:38;7.20;;;4.10;;
38717;SDS011;24468;52.128;9.278;2023-08-08T07:38:04;5.82;;;3.45;;
38717;SDS011;24468;52.128;9.278;2023-08-08T07:40:29;7.72;;;3.25;;
38717;SDS011;24468;52.128;9.278;2023-08-08T07:42:55;10.85;;;3.75;;
38717;SDS011;24468;52.128;9.278;2023-08-08T07:45:20;7.57;;;3.45;;
38717;SDS011;24468;52.128;9.278;2023-08-08T07:47:46;9.15;;;2.85;;
38717;SDS011;24468;52.128;9.278;2023-08-08T07:50:11;6.65;;;3.40;;
38717;SDS011;24468;52.128;9.278;2023-08-08T07:52:37;7.95;;;3.28;;
38717;SDS011;24468;52.128;9.278;2023-08-08T07:55:03;8.30;;;3.72;;
38717;SDS011;24468;52.128;9.278;2023-08-08T07:57:30;7.03;;;3.33;;
38717;SDS011;24468;52.128;9.278;2023-08-08T07:59:59;4.93;;;3.42;;
38717;SDS011;24468;52.128;9.278;2023-08-08T08:02:31;4.85;;;3.30;;
38717;SDS011;24468;52.128;9.278;2023-08-08T08:04:57;5.60;;;3.55;;
38717;SDS011;24468;52.128;9.278;2023-08-08T08:07:22;6.85;;;2.72;;
38717;SDS011;24468;52.128;9.278;2023-08-08T08:09:48;5.10;;;3.33;;
38717;SDS011;24468;52.128;9.278;2023-08-08T08:12:14;7.85;;;3.40;;
38717;SDS011;24468;52.128;9.278;2023-08-08T08:14:39;6.80;;;3.80;;
38717;SDS011;24468;52.128;9.278;2023-08-08T08:17:05;3.28;;;2.90;;
38717;SDS011;24468;52.128;9.278;2023-08-08T08:19:31;4.95;;;3.22;;
38717;SDS011;24468;52.128;9.278;2023-08-08T08:21:56;6.03;;;3.80;;
38717;SDS011;24468;52.128;9.278;2023-08-08T08:24:22;6.80;;;3.45;;
38717;SDS011;24468;52.128;9.278;2023-08-08T08:26:48;7.38;;;3.55;;
38717;SDS011;24468;52.128;9.278;2023-08-08T08:29:13;4.10;;;3.20;;
38717;SDS011;24468;52.128;9.278;2023-08-08T08:31:39;6.30;;;3.40;;
38717;SDS011;24468;52.128;9.278;2023-08-08T08:34:04;6.70;;;3.45;;
38717;SDS011;24468;52.128;9.278;2023-08-08T08:36:30;5.15;;;3.33;;
38717;SDS011;24468;52.128;9.278;2023-08-08T08:38:56;6.05;;;3.00;;
38717;SDS011;24468;52.128;9.278;2023-08-08T08:41:23;4.18;;;3.25;;
38717;SDS011;24468;52.128;9.278;2023-08-08T08:43:52;8.73;;;3.60;;
38717;SDS011;24468;52.128;9.278;2023-08-08T08:46:20;5.80;;;4.18;;
38717;SDS011;24468;52.128;9.278;2023-08-08T08:48:49;8.07;;;4.43;;
38717;SDS011;24468;52.128;9.278;2023-08-08T08:51:16;5.80;;;3.53;;
38717;SDS011;24468;52.128;9.278;2023-08-08T08:53:45;9.40;;;4.72;;
38717;SDS011;24468;52.128;9.278;2023-08-08T08:56:14;7.68;;;3.88;;
38717;SDS011;24468;52.128;9.278;2023-08-08T08:58:41;9.63;;;5.13;;
38717;SDS011;24468;52.128;9.278;2023-08-08T09:01:07;7.13;;;4.28;;
38717;SDS011;24468;52.128;9.278;2023-08-08T09:03:34;5.68;;;3.88;;
38717;SDS011;24468;52.128;9.278;2023-08-08T09:06:04;7.47;;;4.30;;
38717;SDS011;24468;52.128;9.278;2023-08-08T09:08:30;7.95;;;4.05;;
38717;SDS011;24468;52.128;9.278;2023-08-08T09:10:56;5.43;;;4.63;;
38717;SDS011;24468;52.128;9.278;2023-08-08T09:13:22;6.78;;;5.20;;
38717;SDS011;24468;52.128;9.278;2023-08-08T09:15:51;7.35;;;5.05;;
38717;SDS011;24468;52.128;9.278;2023-08-08T09:18:18;8.27;;;5.57;;
38717;SDS011;24468;52.128;9.278;2023-08-08T09:20:50;7.50;;;4.85;;
38717;SDS011;24468;52.128;9.278;2023-08-08T09:23:16;10.35;;;5.05;;
38717;SDS011;24468;52.128;9.278;2023-08-08T09:25:41;12.20;;;5.43;;
38717;SDS011;24468;52.128;9.278;2023-08-08T09:28:07;7.18;;;5.80;;
38717;SDS011;24468;52.128;9.278;2023-08-08T09:30:33;5.82;;;5.28;;
38717;SDS011;24468;52.128;9.278;2023-08-08T09:33:00;8.38;;;5.45;;
38717;SDS011;24468;52.128;9.278;2023-08-08T09:35:28;10.98;;;6.10;;
38717;SDS011;24468;52.128;9.278;2023-08-08T09:37:55;8.15;;;6.55;;
38717;SDS011;24468;52.128;9.278;2023-08-08T09:40:21;12.68;;;8.65;;
38717;SDS011;24468;52.128;9.278;2023-08-08T09:42:50;8.20;;;6.90;;
38717;SDS011;24468;52.128;9.278;2023-08-08T09:45:18;9.10;;;6.72;;
38717;SDS011;24468;52.128;9.278;2023-08-08T09:47:44;12.98;;;6.90;;
38717;SDS011;24468;52.128;9.278;2023-08-08T09:50:11;8.52;;;6.25;;
38717;SDS011;24468;52.128;9.278;2023-08-08T09:52:38;9.40;;;5.28;;
38717;SDS011;24468;52.128;9.278;2023-08-08T09:55:04;6.63;;;5.28;;
38717;SDS011;24468;52.128;9.278;2023-08-08T09:57:30;8.23;;;5.63;;
38717;SDS011;24468;52.128;9.278;2023-08-08T09:59:57;10.98;;;5.00;;
38717;SDS011;24468;52.128;9.278;2023-08-08T10:02:22;7.60;;;5.15;;
38717;SDS011;24468;52.128;9.278;2023-08-08T10:04:48;7.00;;;4.88;;
38717;SDS011;24468;52.128;9.278;2023-08-08T10:07:14;5.43;;;3.00;;
38717;SDS011;24468;52.128;9.278;2023-08-08T10:09:40;7.47;;;3.90;;
38717;SDS011;24468;52.128;9.278;2023-08-08T10:12:06;6.18;;;5.05;;
38717;SDS011;24468;52.128;9.278;2023-08-08T10:14:34;4.95;;;4.00;;
38717;SDS011;24468;52.128;9.278;2023-08-08T10:17:03;5.85;;;3.42;;
38717;SDS011;24468;52.128;9.278;2023-08-08T10:19:30;9.35;;;4.80;;
38717;SDS011;24468;52.128;9.278;2023-08-08T10:21:57;4.55;;;4.00;;
38717;SDS011;24468;52.128;9.278;2023-08-08T10:24:32;5.82;;;3.75;;
38717;SDS011;24468;52.128;9.278;2023-08-08T10:27:01;10.20;;;3.63;;
38717;SDS011;24468;52.128;9.278;2023-08-08T10:29:30;7.53;;;3.30;;
38717;SDS011;24468;52.128;9.278;2023-08-08T10:31:58;6.65;;;3.20;;
38717;SDS011;24468;52.128;9.278;2023-08-08T10:34:43;6.25;;;3.13;;
38717;SDS011;24468;52.128;9.278;2023-08-08T10:37:10;4.43;;;2.67;;
38717;SDS011;24468;52.128;9.278;2023-08-08T10:39:47;5.63;;;3.10;;
38717;SDS011;24468;52.128;9.278;2023-08-08T10:42:24;4.75;;;3.03;;
38717;SDS011;24468;52.128;9.278;2023-08-08T10:44:52;7.00;;;2.75;;
38717;SDS011;24468;52.128;9.278;2023-08-08T10:47:30;5.32;;;2.83;;
38717;SDS011;24468;52.128;9.278;2023-08-08T10:52:49;5.82;;;3.15;;
38717;SDS011;24468;52.128;9.278;2023-08-08T10:55:36;8.90;;;3.13;;
38717;SDS011;24468;52.128;9.278;2023-08-08T10:58:07;6.85;;;2.97;;
38717;SDS011;24468;52.128;9.278;2023-08-08T11:00:35;5.85;;;3.00;;
38717;SDS011;24468;52.128;9.278;2023-08-08T11:03:04;4.70;;;3.30;;
38717;SDS011;24468;52.128;9.278;2023-08-08T11:05:30;3.10;;;2.20;;
38717;SDS011;24468;52.128;9.278;2023-08-08T11:07:57;5.07;;;2.50;;
38717;SDS011;24468;52.128;9.278;2023-08-08T11:10:25;2.80;;;1.98;;
38717;SDS011;24468;52.128;9.278;2023-08-08T11:15:28;6.15;;;2.20;;
38717;SDS011;24468;52.128;9.278;2023-08-08T11:17:55;5.90;;;2.55;;
38717;SDS011;24468;52.128;9.278;2023-08-08T11:20:21;4.38;;;1.85;;
38717;SDS011;24468;52.128;9.278;2023-08-08T11:22:52;2.92;;;1.98;;
38717;SDS011;24468;52.128;9.278;2023-08-08T11:25:20;7.20;;;2.33;;
38717;SDS011;24468;52.128;9.278;2023-08-08T11:30:17;5.90;;;1.42;;
38717;SDS011;24468;52.128;9.278;2023-08-08T11:32:45;3.08;;;1.70;;
38717;SDS011;24468;52.128;9.278;2023-08-08T11:35:12;4.60;;;1.33;;
38717;SDS011;24468;52.128;9.278;2023-08-08T11:37:37;5.15;;;1.65;;
38717;SDS011;24468;52.128;9.278;2023-08-08T11:40:03;3.83;;;1.55;;
38717;SDS011;24468;52.128;9.278;2023-08-08T11:42:31;3.50;;;1.23;;
38717;SDS011;24468;52.128;9.278;2023-08-08T11:44:57;3.08;;;1.25;;
38717;SDS011;24468;52.128;9.278;2023-08-08T11:47:26;2.58;;;1.17;;
38717;SDS011;24468;52.128;9.278;2023-08-08T11:49:53;3.30;;;1.38;;
38717;SDS011;24468;52.128;9.278;2023-08-08T11:52:18;5.40;;;1.60;;
38717;SDS011;24468;52.128;9.278;2023-08-08T11:54:44;2.88;;;1.40;;
38717;SDS011;24468;52.128;9.278;2023-08-08T11:57:17;3.00;;;1.35;;
38717;SDS011;24468;52.128;9.278;2023-08-08T11:59:42;2.45;;;1.60;;
38717;SDS011;24468;52.128;9.278;2023-08-08T12:02:09;4.93;;;1.38;;
38717;SDS011;24468;52.128;9.278;2023-08-08T12:04:35;3.70;;;1.35;;
38717;SDS011;24468;52.128;9.278;2023-08-08T12:07:01;2.13;;;1.13;;
38717;SDS011;24468;52.128;9.278;2023-08-08T12:09:31;5.10;;;1.42;;
38717;SDS011;24468;52.128;9.278;2023-08-08T12:12:01;3.08;;;0.93;;
38717;SDS011;24468;52.128;9.278;2023-08-08T12:14:28;2.30;;;1.40;;
38717;SDS011;24468;52.128;9.278;2023-08-08T12:16:54;4.68;;;1.10;;
38717;SDS011;24468;52.128;9.278;2023-08-08T12:19:24;2.33;;;1.20;;
38717;SDS011;24468;52.128;9.278;2023-08-08T12:21:50;2.63;;;1.10;;
38717;SDS011;24468;52.128;9.278;2023-08-08T12:24:20;4.72;;;1.27;;
38717;SDS011;24468;52.128;9.278;2023-08-08T12:26:45;2.63;;;1.38;;
38717;SDS011;24468;52.128;9.278;2023-08-08T12:29:11;3.92;;;0.88;;
38717;SDS011;24468;52.128;9.278;2023-08-08T12:31:37;2.80;;;0.70;;
38717;SDS011;24468;52.128;9.278;2023-08-08T12:34:03;2.60;;;0.80;;
38717;SDS011;24468;52.128;9.278;2023-08-08T12:36:29;3.53;;;1.00;;
38717;SDS011;24468;52.128;9.278;2023-08-08T12:38:55;5.18;;;1.17;;
38717;SDS011;24468;52.128;9.278;2023-08-08T12:41:21;2.80;;;1.40;;
38717;SDS011;24468;52.128;9.278;2023-08-08T12:43:47;1.25;;;0.80;;
38717;SDS011;24468;52.128;9.278;2023-08-08T12:46:13;6.05;;;1.05;;
38717;SDS011;24468;52.128;9.278;2023-08-08T12:48:38;4.65;;;1.00;;
38717;SDS011;24468;52.128;9.278;2023-08-08T12:51:04;1.95;;;0.63;;
38717;SDS011;24468;52.128;9.278;2023-08-08T12:53:31;6.88;;;1.08;;
38717;SDS011;24468;52.128;9.278;2023-08-08T12:55:56;2.25;;;0.60;;
38717;SDS011;24468;52.128;9.278;2023-08-08T12:58:22;1.13;;;0.75;;
38717;SDS011;24468;52.128;9.278;2023-08-08T13:00:47;1.80;;;0.90;;
38717;SDS011;24468;52.128;9.278;2023-08-08T13:03:13;1.90;;;0.50;;
38717;SDS011;24468;52.128;9.278;2023-08-08T13:05:39;2.22;;;0.70;;
38717;SDS011;24468;52.128;9.278;2023-08-08T13:08:05;1.80;;;0.80;;
38717;SDS011;24468;52.128;9.278;2023-08-08T13:10:30;1.75;;;0.80;;
38717;SDS011;24468;52.128;9.278;2023-08-08T13:12:56;2.80;;;0.80;;
38717;SDS011;24468;52.128;9.278;2023-08-08T13:15:22;0.98;;;0.50;;
38717;SDS011;24468;52.128;9.278;2023-08-08T13:17:47;1.75;;;1.08;;
38717;SDS011;24468;52.128;9.278;2023-08-08T13:20:13;1.85;;;0.70;;
38717;SDS011;24468;52.128;9.278;2023-08-08T13:22:38;1.75;;;0.95;;
38717;SDS011;24468;52.128;9.278;2023-08-08T13:25:05;2.92;;;0.82;;
38717;SDS011;24468;52.128;9.278;2023-08-08T13:27:31;2.22;;;0.68;;
38717;SDS011;24468;52.128;9.278;2023-08-08T13:29:57;4.47;;;0.95;;
38717;SDS011;24468;52.128;9.278;2023-08-08T13:32:22;1.67;;;1.30;;
38717;SDS011;24468;52.128;9.278;2023-08-08T13:34:48;2.60;;;0.80;;
38717;SDS011;24468;52.128;9.278;2023-08-08T13:37:15;4.30;;;1.15;;
38717;SDS011;24468;52.128;9.278;2023-08-08T13:39:41;5.40;;;0.60;;
38717;SDS011;24468;52.128;9.278;2023-08-08T13:42:08;3.75;;;1.23;;
38717;SDS011;24468;52.128;9.278;2023-08-08T13:44:34;2.13;;;0.63;;
38717;SDS011;24468;52.128;9.278;2023-08-08T13:46:59;0.80;;;0.52;;
38717;SDS011;24468;52.128;9.278;2023-08-08T13:49:25;3.10;;;0.73;;
38717;SDS011;24468;52.128;9.278;2023-08-08T13:51:52;2.38;;;0.60;;
38717;SDS011;24468;52.128;9.278;2023-08-08T13:54:18;1.88;;;0.60;;
38717;SDS011;24468;52.128;9.278;2023-08-08T13:56:44;1.02;;;0.68;;
38717;SDS011;24468;52.128;9.278;2023-08-08T13:59:10;2.00;;;0.88;;
38717;SDS011;24468;52.128;9.278;2023-08-08T14:01:35;1.70;;;0.63;;
38717;SDS011;24468;52.128;9.278;2023-08-08T14:04:01;2.95;;;0.93;;
38717;SDS011;24468;52.128;9.278;2023-08-08T14:06:26;7.13;;;0.70;;
38717;SDS011;24468;52.128;9.278;2023-08-08T14:08:52;0.80;;;0.70;;
38717;SDS011;24468;52.128;9.278;2023-08-08T14:11:18;1.77;;;0.70;;
38717;SDS011;24468;52.128;9.278;2023-08-08T14:13:43;3.38;;;0.88;;
38717;SDS011;24468;52.128;9.278;2023-08-08T14:16:09;4.43;;;1.17;;
38717;SDS011;24468;52.128;9.278;2023-08-08T14:18:34;5.18;;;0.82;;
38717;SDS011;24468;52.128;9.278;2023-08-08T14:21:00;2.28;;;0.60;;
38717;SDS011;24468;52.128;9.278;2023-08-08T14:23:27;3.13;;;0.80;;
38717;SDS011;24468;52.128;9.278;2023-08-08T14:25:53;1.60;;;0.55;;
38717;SDS011;24468;52.128;9.278;2023-08-08T14:28:18;2.90;;;0.98;;
38717;SDS011;24468;52.128;9.278;2023-08-08T14:30:44;1.92;;;0.60;;
38717;SDS011;24468;52.128;9.278;2023-08-08T14:33:10;3.15;;;0.90;;
38717;SDS011;24468;52.128;9.278;2023-08-08T14:35:37;2.47;;;0.63;;
38717;SDS011;24468;52.128;9.278;2023-08-08T14:38:03;1.67;;;1.02;;
38717;SDS011;24468;52.128;9.278;2023-08-08T14:40:28;1.67;;;0.52;;
38717;SDS011;24468;52.128;9.278;2023-08-08T14:42:54;4.45;;;0.65;;
38717;SDS011;24468;52.128;9.278;2023-08-08T14:45:19;1.27;;;0.50;;
38717;SDS011;24468;52.128;9.278;2023-08-08T14:47:46;2.65;;;0.68;;
38717;SDS011;24468;52.128;9.278;2023-08-08T14:50:12;2.33;;;0.80;;
38717;SDS011;24468;52.128;9.278;2023-08-08T14:52:37;3.15;;;0.68;;